Time;durP1;ratioP1;P1;durP2;ratioP2;P2;SDS_P1;SDS_P2;PMS_P1;PMS_P2;Temp;Humidity;BMP_temperature;BMP_pressure;BME280_temperature;BME280_humidity;BME280_pressure;Samples;Min_cycle;Max_cycle;Signal;HPM_P1;HPM_P2
2021/09/17 00:00:38;;;;;;;4.70;3.62;;;;;;;25.15;60.08;100593.50;1778649;78;21009;-46
2021/09/17 00:03:06;;;;;;;4.45;3.55;;;;;;;25.12;60.07;100589.42;1770970;78;21021;-48
2021/09/17 00:05:32;;;;;;;3.90;3.15;;;;;;;25.13;60.07;100599.98;1774675;78;21023;-46
2021/09/17 00:07:58;;;;;;;4.05;2.90;;;;;;;25.15;60.16;100601.84;1751382;78;21009;-49
2021/09/17 00:10:25;;;;;;;4.65;3.27;;;;;;;25.15;60.25;100601.27;1751317;80;21029;-48
2021/09/17 00:12:51;;;;;;;4.05;3.40;;;;;;;25.16;60.33;100609.86;1766496;78;21506;-47
2021/09/17 00:15:17;;;;;;;4.85;3.42;;;;;;;25.16;60.37;100604.30;1771944;79;20988;-50
2021/09/17 00:17:44;;;;;;;4.22;3.45;;;;;;;25.17;60.36;100598.92;1748182;80;21564;-46
2021/09/17 00:20:12;;;;;;;6.08;3.95;;;;;;;25.18;60.33;100588.61;1777447;78;21103;-50
2021/09/17 00:22:38;;;;;;;4.72;3.30;;;;;;;25.19;60.29;100593.02;1794617;78;21119;-47
2021/09/17 00:25:06;;;;;;;3.98;3.42;;;;;;;25.18;60.24;100590.81;1777639;80;21020;-46
2021/09/17 00:27:32;;;;;;;4.92;3.70;;;;;;;25.18;60.22;100588.03;1775911;78;21925;-48
2021/09/17 00:29:58;;;;;;;5.85;3.67;;;;;;;25.17;60.18;100583.61;1776130;80;20993;-47
2021/09/17 00:32:24;;;;;;;4.15;3.37;;;;;;;25.16;60.17;100579.81;1776488;80;21032;-52
2021/09/17 00:34:50;;;;;;;4.53;3.65;;;;;;;25.13;60.13;100568.78;1783361;79;20972;-48
2021/09/17 00:37:16;;;;;;;4.12;3.25;;;;;;;25.12;60.15;100566.37;1778059;80;21703;-47
2021/09/17 00:39:42;;;;;;;3.42;2.62;;;;;;;25.10;60.15;100570.89;1779770;79;21243;-51
2021/09/17 00:42:09;;;;;;;3.42;2.90;;;;;;;25.11;60.17;100573.91;1780421;80;21048;-47
2021/09/17 00:44:35;;;;;;;2.98;2.65;;;;;;;25.12;60.24;100576.91;1780014;80;21117;-48
2021/09/17 00:47:01;;;;;;;4.72;3.20;;;;;;;25.13;60.34;100575.74;1774654;79;21674;-49
2021/09/17 00:49:27;;;;;;;5.50;3.20;;;;;;;25.14;60.44;100568.20;1777770;80;20892;-47
2021/09/17 00:51:53;;;;;;;3.55;2.92;;;;;;;25.14;60.47;100562.64;1776205;80;21496;-54
2021/09/17 00:54:19;;;;;;;5.25;3.25;;;;;;;25.15;60.46;100556.73;1776576;80;21115;-48
2021/09/17 00:56:45;;;;;;;4.22;2.85;;;;;;;25.15;60.45;100548.38;1783011;79;21637;-46
2021/09/17 00:59:12;;;;;;;3.95;2.92;;;;;;;25.16;60.41;100551.39;1773963;80;21086;-48
2021/09/17 01:01:39;;;;;;;4.37;3.30;;;;;;;25.16;60.39;100554.75;1780226;80;21542;-47
2021/09/17 01:04:06;;;;;;;4.10;3.33;;;;;;;25.15;60.37;100546.98;1775818;79;21284;-48
2021/09/17 01:06:33;;;;;;;4.17;3.25;;;;;;;25.15;60.33;100548.38;1774221;78;21565;-49
2021/09/17 01:08:59;;;;;;;4.03;3.00;;;;;;;25.12;60.31;100537.92;1780630;80;20997;-48
2021/09/17 01:11:35;;;;;;;3.75;2.83;;;;;;;25.12;60.30;100535.75;1778051;79;21494;-47
2021/09/17 01:14:01;;;;;;;4.55;3.17;;;;;;;25.10;60.31;100529.72;1780054;80;21095;-48
2021/09/17 01:16:28;;;;;;;3.08;2.62;;;;;;;25.06;60.31;100529.62;1781455;80;21132;-49
2021/09/17 01:18:54;;;;;;;3.35;2.55;;;;;;;25.06;60.32;100528.23;1774014;80;21080;-50
2021/09/17 01:21:22;;;;;;;3.85;2.72;;;;;;;25.08;60.38;100527.27;1779064;80;21081;-52
2021/09/17 01:23:48;;;;;;;4.20;2.92;;;;;;;25.09;60.51;100520.55;1779878;80;21536;-50
2021/09/17 01:26:14;;;;;;;3.72;2.42;;;;;;;25.11;60.61;100531.34;1776237;79;21028;-51
2021/09/17 01:28:41;;;;;;;4.03;3.00;;;;;;;25.13;60.67;100529.81;1778841;80;21271;-46
2021/09/17 01:31:07;;;;;;;3.58;2.80;;;;;;;25.15;60.71;100524.71;1772589;79;20970;-49
2021/09/17 01:33:33;;;;;;;3.22;2.50;;;;;;;25.16;60.67;100515.78;1782464;80;21337;-48
2021/09/17 01:36:08;;;;;;;5.17;3.00;;;;;;;25.16;60.63;100515.20;1779188;79;20897;-46
2021/09/17 01:38:36;;;;;;;4.03;2.77;;;;;;;25.17;60.58;100514.59;1769717;80;21066;-47
2021/09/17 01:41:03;;;;;;;4.08;2.62;;;;;;;25.17;60.52;100511.23;1767264;80;21240;-49
2021/09/17 01:43:29;;;;;;;3.42;2.75;;;;;;;25.16;60.47;100514.39;1777676;79;21033;-50
2021/09/17 01:45:55;;;;;;;3.22;2.85;;;;;;;25.15;60.45;100519.14;1778522;79;21012;-50
2021/09/17 01:48:21;;;;;;;3.58;2.98;;;;;;;25.13;60.41;100515.89;1778404;80;21096;-48
2021/09/17 01:50:47;;;;;;;3.92;2.80;;;;;;;25.11;60.43;100515.45;1777773;79;21513;-47
2021/09/17 01:53:14;;;;;;;4.47;2.85;;;;;;;25.08;60.43;100509.18;1776915;79;21464;-48
2021/09/17 01:55:40;;;;;;;4.10;2.47;;;;;;;25.07;60.42;100508.98;1781813;79;21015;-49
2021/09/17 01:58:06;;;;;;;3.50;2.40;;;;;;;25.07;60.44;100506.19;1774586;80;20907;-48
2021/09/17 02:00:32;;;;;;;3.60;2.42;;;;;;;25.08;60.49;100502.83;1779455;79;20897;-48
2021/09/17 02:02:58;;;;;;;3.65;2.65;;;;;;;25.08;60.63;100502.22;1777516;80;20890;-47
2021/09/17 02:05:25;;;;;;;3.02;2.50;;;;;;;25.09;60.72;100502.45;1782109;78;21208;-51
2021/09/17 02:07:53;;;;;;;4.55;2.52;;;;;;;25.11;60.77;100506.29;1775312;79;20984;-46
2021/09/17 02:10:21;;;;;;;3.30;3.00;;;;;;;25.11;60.76;100496.55;1776442;80;21064;-49
2021/09/17 02:12:47;;;;;;;3.20;2.50;;;;;;;25.12;60.73;100498.17;1782683;80;21041;-50
2021/09/17 02:15:13;;;;;;;2.92;2.45;;;;;;;25.11;60.68;100493.19;1781593;80;21126;-49
2021/09/17 02:17:39;;;;;;;2.90;2.60;;;;;;;25.11;60.66;100489.00;1779954;79;21836;-49
2021/09/17 02:20:07;;;;;;;3.87;2.67;;;;;;;25.10;60.60;100483.78;1782280;80;20974;-48
2021/09/17 02:22:34;;;;;;;4.85;3.15;;;;;;;25.09;60.57;100489.11;1781754;79;21045;-48
2021/09/17 02:25:01;;;;;;;3.62;3.00;;;;;;;25.07;60.57;100490.88;1780810;80;21610;-49
2021/09/17 02:27:27;;;;;;;3.55;2.52;;;;;;;25.05;60.53;100493.20;1781258;79;21480;-47
2021/09/17 02:29:53;;;;;;;3.45;2.55;;;;;;;25.04;60.54;100501.92;1782140;80;22725;-47
2021/09/17 02:32:19;;;;;;;2.98;2.30;;;;;;;25.03;60.55;100499.72;1780569;79;20939;-47
2021/09/17 02:34:46;;;;;;;2.72;2.27;;;;;;;25.04;60.60;100497.14;1780076;80;21489;-46
2021/09/17 02:37:11;;;;;;;3.08;2.30;;;;;;;25.05;60.68;100493.20;1774462;80;20909;-47
2021/09/17 02:39:37;;;;;;;3.52;2.62;;;;;;;25.06;60.77;100489.26;1773414;80;20918;-47
2021/09/17 02:42:04;;;;;;;3.05;2.55;;;;;;;25.07;60.85;100494.25;1774418;80;21706;-47
2021/09/17 02:44:32;;;;;;;3.22;2.33;;;;;;;25.06;60.81;100486.47;1777748;80;20894;-50
2021/09/17 02:46:58;;;;;;;3.20;2.55;;;;;;;25.08;60.78;100482.73;1777330;79;21077;-47
2021/09/17 02:49:24;;;;;;;3.90;2.95;;;;;;;25.08;60.73;100474.38;1776399;80;21045;-47
2021/09/17 02:51:50;;;;;;;3.17;2.52;;;;;;;25.08;60.70;100479.17;1776981;79;21861;-48
2021/09/17 02:54:16;;;;;;;3.20;2.90;;;;;;;25.08;60.65;100473.60;1780641;78;21222;-48
2021/09/17 02:56:42;;;;;;;3.98;2.70;;;;;;;25.06;60.63;100475.92;1783402;78;20962;-47
2021/09/17 02:59:08;;;;;;;4.05;2.70;;;;;;;25.04;60.60;100469.91;1781955;80;20982;-48
2021/09/17 03:01:34;;;;;;;4.40;2.92;;;;;;;25.02;60.58;100477.22;1778968;80;21014;-51
2021/09/17 03:04:01;;;;;;;4.55;2.55;;;;;;;25.00;60.57;100465.61;1774415;79;21583;-47
2021/09/17 03:06:27;;;;;;;2.72;2.10;;;;;;;24.99;60.57;100460.63;1778983;79;22003;-49
2021/09/17 03:08:53;;;;;;;2.90;2.17;;;;;;;25.00;60.63;100453.09;1779682;79;21078;-49
2021/09/17 03:11:19;;;;;;;2.90;2.25;;;;;;;25.02;60.74;100450.77;1778156;79;21445;-48
2021/09/17 03:13:45;;;;;;;4.00;2.45;;;;;;;25.03;60.80;100454.37;1770233;79;21095;-49
2021/09/17 03:16:12;;;;;;;2.95;2.60;;;;;;;25.04;60.87;100451.83;1769919;79;21498;-47
2021/09/17 03:18:38;;;;;;;3.55;2.30;;;;;;;25.04;60.85;100449.03;1780497;78;21734;-49
2021/09/17 03:21:04;;;;;;;3.12;2.47;;;;;;;25.04;60.81;100449.82;1781032;78;21060;-46
2021/09/17 03:23:30;;;;;;;3.60;2.55;;;;;;;25.05;60.75;100458.41;1780641;79;21052;-48
2021/09/17 03:25:56;;;;;;;3.60;2.67;;;;;;;25.05;60.73;100452.84;1780346;78;21032;-50
2021/09/17 03:28:23;;;;;;;3.72;2.77;;;;;;;25.04;60.66;100441.47;1784610;78;20981;-48
2021/09/17 03:30:49;;;;;;;3.35;2.80;;;;;;;25.03;60.64;100437.67;1746948;80;21125;-47
2021/09/17 03:33:15;;;;;;;3.10;2.45;;;;;;;25.01;60.62;100440.22;1774236;80;20951;-50
2021/09/17 03:35:44;;;;;;;3.25;2.52;;;;;;;24.99;60.59;100437.58;1770438;78;21056;-47
2021/09/17 03:38:10;;;;;;;2.95;2.65;;;;;;;24.96;60.59;100430.73;1774831;80;21074;-49
2021/09/17 03:40:37;;;;;;;2.98;2.40;;;;;;;24.97;60.60;100427.37;1772749;80;21029;-47
2021/09/17 03:43:04;;;;;;;2.67;2.10;;;;;;;24.98;60.65;100435.95;1767679;80;21435;-46
2021/09/17 03:45:32;;;;;;;2.83;2.17;;;;;;;24.99;60.76;100438.97;1772208;80;21576;-47
2021/09/17 03:48:00;;;;;;;4.08;2.40;;;;;;;24.99;60.83;100434.80;1777945;80;21024;-50
2021/09/17 03:50:27;;;;;;;3.08;2.30;;;;;;;25.00;60.88;100442.77;1767581;80;21642;-49
2021/09/17 03:52:53;;;;;;;3.92;2.80;;;;;;;25.01;60.88;100440.80;1770211;80;21915;-49
2021/09/17 03:55:19;;;;;;;3.08;2.55;;;;;;;25.01;60.86;100440.22;1771317;80;21950;-47
2021/09/17 03:57:46;;;;;;;4.92;2.30;;;;;;;25.01;60.81;100438.83;1768848;80;20924;-47
2021/09/17 04:00:14;;;;;;;3.37;2.50;;;;;;;25.02;60.74;100438.25;1772557;80;20991;-49
2021/09/17 04:02:40;;;;;;;3.22;2.35;;;;;;;25.00;60.71;100439.17;1774763;80;21080;-47
2021/09/17 04:05:07;;;;;;;3.52;2.65;;;;;;;24.99;60.66;100432.02;1780543;79;21628;-48
2021/09/17 04:07:38;;;;;;;3.42;2.70;;;;;;;24.98;60.64;100437.34;1773776;80;21257;-49
2021/09/17 04:10:06;;;;;;;3.10;2.35;;;;;;;24.95;60.62;100433.28;1773090;79;21039;-50
2021/09/17 04:12:32;;;;;;;3.55;2.67;;;;;;;24.93;60.62;100433.42;1767641;80;21042;-48
2021/09/17 04:14:59;;;;;;;4.22;2.37;;;;;;;24.91;60.61;100432.95;1778687;80;21543;-47
2021/09/17 04:17:25;;;;;;;2.92;2.02;;;;;;;24.91;60.62;100427.39;1777410;80;21097;-48
2021/09/17 04:19:52;;;;;;;3.77;2.27;;;;;;;24.92;60.70;100426.23;1776161;80;21145;-47
2021/09/17 04:22:18;;;;;;;3.35;2.33;;;;;;;24.92;60.77;100421.48;1781052;79;21680;-49
2021/09/17 04:24:44;;;;;;;3.02;2.42;;;;;;;24.93;60.86;100426.47;1778964;79;21080;-47
2021/09/17 04:27:10;;;;;;;3.87;2.60;;;;;;;24.93;60.92;100420.32;1778610;79;21039;-47
2021/09/17 04:29:36;;;;;;;3.50;2.60;;;;;;;24.95;60.89;100415.80;1779011;80;21455;-47
2021/09/17 04:32:03;;;;;;;4.05;2.50;;;;;;;24.94;60.86;100408.03;1772970;80;21783;-45
2021/09/17 04:34:29;;;;;;;12.40;5.22;;;;;;;24.95;60.81;100407.45;1774544;79;21079;-46
2021/09/17 04:36:56;;;;;;;24.10;10.60;;;;;;;24.96;60.79;100403.48;1782270;80;21495;-46
2021/09/17 04:39:22;;;;;;;5.92;3.58;;;;;;;24.96;60.76;100403.48;1770656;80;21058;-51
2021/09/17 04:41:48;;;;;;;48.50;23.15;;;;;;;24.95;60.76;100406.06;1778982;78;21073;-47
2021/09/17 04:44:14;;;;;;;147.40;53.85;;;;;;;24.94;60.80;100408.61;1776495;79;21601;-49
2021/09/17 04:46:40;;;;;;;24.67;9.10;;;;;;;24.92;60.81;100402.58;1781088;80;20957;-51
2021/09/17 04:49:06;;;;;;;123.10;39.92;;;;;;;24.93;60.86;100407.80;1775372;79;21066;-47
2021/09/17 04:51:32;;;;;;;31.05;11.00;;;;;;;24.97;60.95;100410.67;1772956;80;21520;-49
2021/09/17 04:53:58;;;;;;;93.55;29.02;;;;;;;24.98;61.09;100417.28;1775640;79;21064;-49
2021/09/17 04:56:24;;;;;;;83.07;22.42;;;;;;;25.01;61.17;100421.31;1775466;79;21305;-46
2021/09/17 04:58:50;;;;;;;46.88;14.10;;;;;;;25.04;61.28;100418.42;1780222;79;21412;-47
2021/09/17 05:01:17;;;;;;;85.62;21.40;;;;;;;25.05;61.32;100415.84;1775222;79;21016;-49
2021/09/17 05:03:43;;;;;;;38.65;10.30;;;;;;;25.07;61.31;100412.94;1776627;79;21784;-48
2021/09/17 05:06:10;;;;;;;37.55;10.58;;;;;;;25.09;61.26;100406.42;1776604;80;21041;-49
2021/09/17 05:08:37;;;;;;;30.62;9.03;;;;;;;25.11;61.20;100413.84;1780495;79;21181;-46
2021/09/17 05:11:03;;;;;;;11.68;4.12;;;;;;;25.11;61.14;100408.28;1772776;79;21144;-46
2021/09/17 05:13:29;;;;;;;15.75;5.62;;;;;;;25.10;61.09;100415.00;1765347;80;21089;-48
2021/09/17 05:15:55;;;;;;;123.78;61.33;;;;;;;25.10;61.05;100405.27;1772127;80;21126;-48
2021/09/17 05:18:23;;;;;;;259.62;123.70;;;;;;;25.09;61.00;100405.61;1772748;80;21059;-46
2021/09/17 05:20:49;;;;;;;219.37;91.45;;;;;;;25.08;60.99;100410.36;1764953;80;23245;-48
2021/09/17 05:23:15;;;;;;;122.87;46.98;;;;;;;25.07;60.96;100413.52;1771181;79;20983;-52
2021/09/17 05:25:41;;;;;;;137.15;46.18;;;;;;;25.05;60.96;100417.23;1773643;79;20910;-48
2021/09/17 05:28:07;;;;;;;57.30;20.60;;;;;;;25.06;60.95;100424.42;1768283;80;20917;-47
2021/09/17 05:30:33;;;;;;;19.62;6.25;;;;;;;25.07;60.99;100417.12;1768287;80;21027;-47
2021/09/17 05:33:01;;;;;;;63.45;23.30;;;;;;;25.09;61.09;100414.77;1780506;80;22109;-48
2021/09/17 05:35:27;;;;;;;23.15;7.97;;;;;;;25.11;61.17;100419.99;1746395;80;21574;-49
2021/09/17 05:37:53;;;;;;;44.10;15.38;;;;;;;25.14;61.22;100417.88;1767702;78;21177;-46
2021/09/17 05:40:19;;;;;;;7.05;3.37;;;;;;;25.16;61.20;100418.34;1778968;79;21002;-48
2021/09/17 05:42:45;;;;;;;8.88;3.67;;;;;;;25.16;61.20;100418.34;1758848;81;21088;-47
2021/09/17 05:45:12;;;;;;;5.53;3.05;;;;;;;25.16;61.14;100419.16;1762206;81;21205;-50
2021/09/17 05:47:38;;;;;;;17.07;6.47;;;;;;;25.18;61.07;100416.80;1757650;80;21140;-48
2021/09/17 05:50:07;;;;;;;15.28;5.58;;;;;;;25.18;61.01;100415.41;1727727;81;21674;-46
2021/09/17 05:52:33;;;;;;;13.40;5.15;;;;;;;25.18;60.94;100415.41;1759271;79;21036;-47
2021/09/17 05:54:59;;;;;;;11.88;4.92;;;;;;;25.17;60.89;100407.41;1761474;80;21480;-47
2021/09/17 05:57:26;;;;;;;14.93;6.03;;;;;;;25.16;60.83;100413.59;1761039;79;21279;-49
2021/09/17 05:59:52;;;;;;;12.45;5.00;;;;;;;25.15;60.79;100411.96;1760024;81;21058;-47
2021/09/17 06:02:18;;;;;;;13.05;5.08;;;;;;;25.13;60.75;100410.69;1759093;79;20950;-49
2021/09/17 06:04:44;;;;;;;12.50;4.92;;;;;;;25.11;60.73;100411.64;1761291;79;21862;-49
2021/09/17 06:07:10;;;;;;;9.25;4.05;;;;;;;25.09;60.72;100409.20;1758604;79;21006;-47
2021/09/17 06:09:37;;;;;;;9.30;4.20;;;;;;;25.10;60.73;100412.22;1759173;81;21660;-49
2021/09/17 06:12:04;;;;;;;10.32;3.58;;;;;;;25.11;60.75;100409.67;1757876;81;21095;-51
2021/09/17 06:14:30;;;;;;;10.63;3.85;;;;;;;25.13;60.86;100414.28;1770064;79;21060;-48
2021/09/17 06:16:56;;;;;;;9.03;3.60;;;;;;;25.13;60.92;100415.67;1754678;81;21081;-49
2021/09/17 06:19:23;;;;;;;7.53;4.00;;;;;;;25.14;60.96;100407.55;1756520;80;21005;-48
2021/09/17 06:21:49;;;;;;;9.88;3.98;;;;;;;25.16;60.91;100407.20;1762855;81;21098;-48
2021/09/17 06:24:15;;;;;;;9.83;3.83;;;;;;;25.17;60.88;100406.02;1764338;79;21669;-48
2021/09/17 06:26:41;;;;;;;7.12;3.30;;;;;;;25.18;60.82;100400.68;1764735;79;20991;-50
2021/09/17 06:29:07;;;;;;;8.65;3.92;;;;;;;25.17;60.77;100409.61;1758138;79;21006;-48
2021/09/17 06:31:35;;;;;;;7.75;3.83;;;;;;;25.17;60.70;100406.83;1762714;79;21595;-47
2021/09/17 06:34:02;;;;;;;8.23;4.00;;;;;;;25.17;60.66;100408.80;1760842;81;23145;-48
2021/09/17 06:36:28;;;;;;;7.62;3.52;;;;;;;25.14;60.61;100399.20;1769805;79;21065;-48
2021/09/17 06:38:55;;;;;;;10.15;4.20;;;;;;;25.14;60.59;100409.52;1763577;79;20872;-50
2021/09/17 06:41:22;;;;;;;8.00;3.50;;;;;;;25.12;60.56;100416.05;1766578;79;21391;-48
2021/09/17 06:43:48;;;;;;;7.12;2.92;;;;;;;25.10;60.56;100419.18;1768605;79;21064;-47
2021/09/17 06:46:15;;;;;;;5.42;2.72;;;;;;;25.11;60.55;100420.80;1773382;79;21496;-47
2021/09/17 06:48:41;;;;;;;5.70;2.80;;;;;;;25.13;60.58;100420.42;1767274;79;21421;-47
2021/09/17 06:51:07;;;;;;;7.33;3.17;;;;;;;25.14;60.67;100421.47;1772579;79;21009;-48
2021/09/17 06:53:33;;;;;;;5.83;3.40;;;;;;;25.15;60.76;100418.92;1773729;79;20956;-48
2021/09/17 06:56:00;;;;;;;6.33;3.10;;;;;;;25.16;60.78;100419.73;1758943;79;20901;-49
2021/09/17 06:58:31;;;;;;;7.75;3.20;;;;;;;25.17;60.75;100417.97;1769632;80;21255;-49
2021/09/17 07:00:57;;;;;;;8.03;3.30;;;;;;;25.17;60.72;100416.57;1743836;81;21059;-49
2021/09/17 07:03:23;;;;;;;7.78;3.40;;;;;;;25.18;60.67;100412.63;1745180;80;21059;-49
2021/09/17 07:05:49;;;;;;;6.72;3.12;;;;;;;25.18;60.61;100412.63;1753116;80;21789;-46
2021/09/17 07:08:15;;;;;;;5.10;2.72;;;;;;;25.18;60.57;100407.64;1751176;81;21032;-48
2021/09/17 07:10:41;;;;;;;5.00;2.98;;;;;;;25.18;60.52;100422.38;1742576;80;21515;-49
2021/09/17 07:13:07;;;;;;;7.20;3.47;;;;;;;25.18;60.48;100432.70;1748664;81;20909;-49
2021/09/17 07:15:34;;;;;;;6.58;3.22;;;;;;;25.14;60.47;100422.86;1770294;80;21123;-45
2021/09/17 07:18:04;;;;;;;7.83;3.22;;;;;;;25.14;60.44;100419.27;1767208;80;21029;-51
2021/09/17 07:20:31;;;;;;;4.65;2.33;;;;;;;25.12;60.40;100415.44;1767027;80;21002;-46
2021/09/17 07:22:57;;;;;;;3.80;2.10;;;;;;;25.13;60.41;100421.23;1762109;80;21384;-46
2021/09/17 07:25:23;;;;;;;4.83;2.70;;;;;;;25.16;60.46;100418.34;1767809;80;21112;-47
2021/09/17 07:27:49;;;;;;;4.03;2.42;;;;;;;25.18;60.55;100413.20;1765607;80;20990;-46
2021/09/17 07:30:16;;;;;;;5.30;2.70;;;;;;;25.18;60.61;100415.41;1765042;80;21083;-47
2021/09/17 07:32:42;;;;;;;4.60;2.75;;;;;;;25.18;60.64;100409.84;1770969;80;21451;-47
2021/09/17 07:35:09;;;;;;;4.45;2.65;;;;;;;25.20;60.61;100414.48;1768308;80;21705;-48
2021/09/17 07:37:35;;;;;;;5.30;2.95;;;;;;;25.20;60.56;100418.66;1762301;80;21075;-48
2021/09/17 07:40:03;;;;;;;5.45;2.72;;;;;;;25.21;60.53;100425.02;1764372;80;21040;-52
2021/09/17 07:42:29;;;;;;;5.12;2.92;;;;;;;25.21;60.49;100434.76;1771009;80;21048;-46
2021/09/17 07:44:55;;;;;;;7.05;3.37;;;;;;;25.20;60.43;100444.30;1764312;80;21051;-49
2021/09/17 07:47:22;;;;;;;5.45;3.10;;;;;;;25.18;60.38;100434.91;1765666;80;21179;-47
2021/09/17 07:49:48;;;;;;;4.58;2.95;;;;;;;25.17;60.36;100426.89;1764232;79;20964;-47
2021/09/17 07:52:14;;;;;;;4.62;2.80;;;;;;;25.16;60.35;100440.03;1765651;80;20922;-46
2021/09/17 07:54:40;;;;;;;4.42;2.83;;;;;;;25.15;60.30;100434.81;1766123;80;21720;-47
2021/09/17 07:57:06;;;;;;;5.35;2.67;;;;;;;25.13;60.32;100437.13;1766370;80;21136;-47
2021/09/17 07:59:32;;;;;;;4.65;2.47;;;;;;;25.12;60.29;100434.92;1766830;80;21148;-46
2021/09/17 08:01:58;;;;;;;3.95;2.22;;;;;;;25.14;60.30;100430.41;1766448;79;20952;-46
2021/09/17 08:04:24;;;;;;;3.87;2.40;;;;;;;25.15;60.36;100421.70;1768784;79;21036;-48
2021/09/17 08:06:50;;;;;;;3.80;2.52;;;;;;;25.17;60.44;100419.94;1763606;80;21043;-48
2021/09/17 08:09:16;;;;;;;4.97;2.75;;;;;;;25.18;60.51;100421.56;1764416;80;20920;-47
2021/09/17 08:11:43;;;;;;;4.87;2.62;;;;;;;25.17;60.54;100411.00;1762625;80;22014;-47
2021/09/17 08:14:09;;;;;;;4.97;2.90;;;;;;;25.18;60.50;100416.80;1768128;80;21028;-48
2021/09/17 08:16:35;;;;;;;4.15;2.87;;;;;;;25.19;60.49;100419.82;1785269;79;21862;-47
2021/09/17 08:19:03;;;;;;;5.12;2.92;;;;;;;25.20;60.43;100416.45;1776948;80;20898;-49
2021/09/17 08:21:30;;;;;;;5.03;2.58;;;;;;;25.21;60.39;100432.78;1771185;80;21082;-50
2021/09/17 08:23:56;;;;;;;6.05;2.50;;;;;;;25.20;60.34;100427.59;1768122;80;21164;-47
2021/09/17 08:26:22;;;;;;;5.92;2.92;;;;;;;25.18;60.28;100411.81;1768967;80;21470;-47
2021/09/17 08:28:48;;;;;;;4.75;2.92;;;;;;;25.16;60.28;100409.41;1765938;80;21123;-46
2021/09/17 08:31:14;;;;;;;5.80;2.72;;;;;;;25.15;60.24;100413.36;1771526;79;21037;-48
2021/09/17 08:33:42;;;;;;;3.52;2.50;;;;;;;25.13;60.25;100415.67;1770279;80;21479;-47
2021/09/17 08:36:09;;;;;;;4.87;2.70;;;;;;;25.12;60.24;100422.39;1774929;79;21124;-50
2021/09/17 08:38:37;;;;;;;3.62;2.35;;;;;;;25.12;60.25;100412.66;1771930;80;21034;-48
2021/09/17 08:41:03;;;;;;;3.70;2.10;;;;;;;25.13;60.28;100425.41;1768984;80;21013;-47
2021/09/17 08:43:29;;;;;;;4.05;2.52;;;;;;;25.15;60.38;100425.88;1765702;79;21644;-48
2021/09/17 08:45:55;;;;;;;3.80;2.50;;;;;;;25.16;60.48;100394.09;1772608;80;20908;-49
2021/09/17 08:48:29;;;;;;;4.53;2.60;;;;;;;25.16;60.52;100372.41;1768369;80;21465;-48
2021/09/17 08:50:57;;;;;;;3.72;2.45;;;;;;;25.17;60.50;100363.67;1770287;79;21558;-47
2021/09/17 08:53:23;;;;;;;4.03;2.52;;;;;;;25.17;60.46;100385.95;1769300;80;21054;-48
2021/09/17 08:55:49;;;;;;;4.17;2.55;;;;;;;25.18;60.42;100383.98;1773533;80;21063;-48
2021/09/17 08:58:16;;;;;;;5.75;2.58;;;;;;;25.17;60.36;100372.03;1764061;79;21147;-48
2021/09/17 09:00:42;;;;;;;4.83;2.85;;;;;;;25.16;60.30;100377.39;1769445;80;21969;-47
2021/09/17 09:03:09;;;;;;;3.45;2.67;;;;;;;25.17;60.28;100380.96;1773123;80;21001;-48
2021/09/17 09:05:38;;;;;;;5.67;2.62;;;;;;;25.14;60.24;100376.93;1772614;80;21097;-52
2021/09/17 09:08:05;;;;;;;3.65;2.50;;;;;;;25.13;60.21;100368.34;1774919;80;21025;-49
2021/09/17 09:10:32;;;;;;;4.33;2.95;;;;;;;25.12;60.20;100366.72;1770484;80;21015;-50
2021/09/17 09:13:05;;;;;;;4.12;2.87;;;;;;;25.10;60.18;100357.94;1766794;80;21453;-47
2021/09/17 09:15:34;;;;;;;4.40;2.37;;;;;;;25.09;60.17;100363.86;1737828;80;21025;-46
2021/09/17 09:18:12;;;;;;;3.20;2.27;;;;;;;25.10;60.17;100364.90;1752613;80;21041;-47
2021/09/17 09:20:45;;;;;;;3.55;2.25;;;;;;;25.12;60.22;100360.38;1777050;78;21034;-47
2021/09/17 09:23:26;;;;;;;3.70;2.25;;;;;;;25.13;60.34;100354.43;1778632;79;21022;-47
2021/09/17 09:26:03;;;;;;;3.75;2.67;;;;;;;25.14;60.39;100356.63;1756377;79;21939;-47
2021/09/17 09:28:35;;;;;;;2.72;2.27;;;;;;;25.15;60.43;100342.37;1772962;78;21021;-50
2021/09/17 09:31:11;;;;;;;2.67;2.10;;;;;;;25.17;60.41;100341.98;1781938;78;21002;-49
2021/09/17 09:33:48;;;;;;;3.58;2.35;;;;;;;25.18;60.35;100349.17;1762005;80;21038;-48
2021/09/17 09:36:22;;;;;;;3.02;2.30;;;;;;;25.18;60.31;100358.34;1769997;79;21034;-48
2021/09/17 09:38:50;;;;;;;3.55;2.60;;;;;;;25.18;60.24;100361.70;1768454;79;21167;-49
2021/09/17 09:41:26;;;;;;;3.27;2.58;;;;;;;25.18;60.17;100360.31;1769441;81;21019;-48
2021/09/17 09:44:05;;;;;;;3.35;2.25;;;;;;;25.18;60.15;100346.39;1768126;79;21028;-49
2021/09/17 09:46:42;;;;;;;4.62;2.40;;;;;;;25.17;60.12;100341.41;1769978;79;21483;-50
2021/09/17 09:49:27;;;;;;;3.12;2.40;;;;;;;25.16;60.08;100343.98;1771872;79;21005;-50
2021/09/17 09:52:00;;;;;;;3.60;2.50;;;;;;;25.16;60.06;100350.14;1766994;80;21514;-46
2021/09/17 09:54:29;;;;;;;3.35;2.25;;;;;;;25.15;60.05;100348.52;1764620;81;20930;-46
2021/09/17 09:56:55;;;;;;;3.00;2.08;;;;;;;25.15;60.02;100338.19;1761496;80;21117;-50
2021/09/17 09:59:30;;;;;;;3.80;2.05;;;;;;;25.18;60.08;100333.28;1782790;79;21015;-47
2021/09/17 10:01:59;;;;;;;3.35;2.20;;;;;;;25.20;60.18;100324.00;1768760;80;21572;-47
2021/09/17 10:04:27;;;;;;;4.05;2.27;;;;;;;25.21;60.26;100320.03;1765811;81;21489;-46
2021/09/17 10:07:10;;;;;;;3.02;2.52;;;;;;;25.23;60.30;100319.67;1769234;79;21226;-49
2021/09/17 10:09:39;;;;;;;3.15;2.25;;;;;;;25.24;60.26;100316.55;1764020;79;21086;-46
2021/09/17 10:12:07;;;;;;;3.52;2.40;;;;;;;25.25;60.21;100308.39;1764300;80;21546;-46
2021/09/17 10:14:34;;;;;;;3.17;2.45;;;;;;;25.26;60.15;100310.02;1766170;79;21566;-49
2021/09/17 10:17:05;;;;;;;4.45;2.60;;;;;;;25.27;60.10;100313.03;1745159;81;21291;-47
2021/09/17 10:19:32;;;;;;;3.83;2.25;;;;;;;25.28;60.06;100305.48;1744599;81;20989;-48
2021/09/17 10:21:59;;;;;;;3.67;2.10;;;;;;;25.28;59.97;100289.59;1746155;81;21085;-47
2021/09/17 10:24:33;;;;;;;2.62;2.22;;;;;;;25.28;59.94;100270.10;1749412;81;21060;-50
2021/09/17 10:27:10;;;;;;;3.77;2.20;;;;;;;25.27;59.90;100259.31;1747808;81;21060;-47
2021/09/17 10:29:45;;;;;;;3.20;2.12;;;;;;;25.26;59.85;100261.29;1742327;81;21069;-47
2021/09/17 10:32:34;;;;;;;3.20;2.05;;;;;;;25.24;59.85;100256.69;1746850;81;21021;-48
2021/09/17 10:35:11;;;;;;;3.35;2.12;;;;;;;25.24;59.82;100260.86;1739549;81;21010;-51
2021/09/17 10:38:01;;;;;;;3.15;2.17;;;;;;;25.25;59.83;100260.28;1745543;81;21005;-47
2021/09/17 10:40:54;;;;;;;2.90;2.10;;;;;;;25.26;59.88;100251.55;1731119;81;21067;-49
2021/09/17 10:43:31;;;;;;;3.30;2.58;;;;;;;25.29;59.97;100258.38;1747642;81;21078;-49
2021/09/17 10:45:59;;;;;;;4.25;2.10;;;;;;;25.31;60.05;100261.59;1744067;81;21056;-51
2021/09/17 10:48:42;;;;;;;2.83;2.10;;;;;;;25.30;60.05;100259.39;1741294;81;21059;-50
2021/09/17 10:51:08;;;;;;;2.83;2.20;;;;;;;25.32;59.99;100259.85;1746847;81;20994;-48
2021/09/17 10:53:53;;;;;;;3.12;2.17;;;;;;;25.33;59.93;100254.48;1740772;81;21034;-51
2021/09/17 10:56:19;;;;;;;3.58;2.08;;;;;;;25.34;59.89;100256.10;1747482;81;21075;-46
2021/09/17 10:58:46;;;;;;;3.35;2.25;;;;;;;25.35;59.80;100256.33;1747869;80;21485;-46
2021/09/17 11:01:15;;;;;;;3.05;2.35;;;;;;;25.36;59.77;100247.40;1749085;81;21043;-45
2021/09/17 11:03:56;;;;;;;3.40;2.00;;;;;;;25.36;59.71;100243.22;1736708;81;37985;-46
2021/09/17 11:06:27;;;;;;;3.10;2.17;;;;;;;25.37;59.66;100249.83;1748074;81;21087;-48
2021/09/17 11:09:04;;;;;;;2.67;2.05;;;;;;;25.37;59.62;100251.80;1744722;81;21107;-48
2021/09/17 11:11:41;;;;;;;2.83;1.90;;;;;;;25.36;59.58;100242.64;1747032;81;21070;-47
2021/09/17 11:14:16;;;;;;;3.22;2.30;;;;;;;25.35;59.57;100241.02;1747074;81;21013;-50
2021/09/17 11:16:44;;;;;;;2.80;2.20;;;;;;;25.33;59.55;100228.03;1741906;81;21026;-47
2021/09/17 11:19:13;;;;;;;2.77;2.00;;;;;;;25.32;59.51;100220.06;1746139;81;21057;-49
2021/09/17 11:21:43;;;;;;;2.87;1.98;;;;;;;25.33;59.53;100210.55;1742844;81;21140;-53
2021/09/17 11:24:19;;;;;;;2.17;1.77;;;;;;;25.35;59.57;100202.03;1751297;81;21623;-48
2021/09/17 11:26:49;;;;;;;3.70;1.72;;;;;;;25.37;59.65;100202.49;1744684;80;21089;-50